sensor_id;sensor_type;location;lat;lon;timestamp;pressure;altitude;pressure_sealevel;temperature;humidity
66689;BME280;53587;59.318;18.084;2023-09-07T00:00:53;102970.47;;;18.98;79.30
66689;BME280;53587;59.318;18.084;2023-09-07T00:03:19;102983.34;;;19.33;88.11
66689;BME280;53587;59.318;18.084;2023-09-07T00:05:44;102971.94;;;19.58;90.42
66689;BME280;53587;59.318;18.084;2023-09-07T00:08:10;102972.66;;;19.83;91.61
66689;BME280;53587;59.318;18.084;2023-09-07T00:10:35;102971.88;;;19.99;91.13
66689;BME280;53587;59.318;18.084;2023-09-07T00:13:03;102966.84;;;20.13;90.02
66689;BME280;53587;59.318;18.084;2023-09-07T00:15:29;102962.66;;;20.10;88.20
66689;BME280;53587;59.318;18.084;2023-09-07T00:17:55;102970.03;;;19.30;77.20
66689;BME280;53587;59.318;18.084;2023-09-07T00:20:20;102964.84;;;19.34;83.95
66689;BME280;53587;59.318;18.084;2023-09-07T00:22:46;102964.72;;;19.57;88.92
66689;BME280;53587;59.318;18.084;2023-09-07T00:25:11;102957.38;;;19.80;91.84
66689;BME280;53587;59.318;18.084;2023-09-07T00:27:36;102950.81;;;19.98;91.06
66689;BME280;53587;59.318;18.084;2023-09-07T00:30:02;102964.06;;;20.13;91.42
66689;BME280;53587;59.318;18.084;2023-09-07T00:32:29;102956.94;;;20.34;91.90
66689;BME280;53587;59.318;18.084;2023-09-07T00:34:54;102960.31;;;20.19;88.87
66689;BME280;53587;59.318;18.084;2023-09-07T00:37:20;102958.16;;;19.46;79.70
66689;BME280;53587;59.318;18.084;2023-09-07T00:39:45;102971.84;;;19.12;80.20
66689;BME280;53587;59.318;18.084;2023-09-07T00:42:10;102967.44;;;18.88;80.38
66689;BME280;53587;59.318;18.084;2023-09-07T00:44:35;102975.25;;;19.03;86.53
66689;BME280;53587;59.318;18.084;2023-09-07T00:47:00;102978.66;;;19.34;90.71
66689;BME280;53587;59.318;18.084;2023-09-07T00:49:26;102967.84;;;19.61;92.25
66689;BME280;53587;59.318;18.084;2023-09-07T00:51:52;102972.06;;;19.81;90.77
66689;BME280;53587;59.318;18.084;2023-09-07T00:54:17;102965.66;;;19.92;90.17
66689;BME280;53587;59.318;18.084;2023-09-07T00:56:43;102970.97;;;20.10;90.00
66689;BME280;53587;59.318;18.084;2023-09-07T00:59:08;102965.09;;;20.24;92.43
66689;BME280;53587;59.318;18.084;2023-09-07T01:01:35;102976.38;;;20.39;92.07
66689;BME280;53587;59.318;18.084;2023-09-07T01:04:00;102965.00;;;20.02;82.46
66689;BME280;53587;59.318;18.084;2023-09-07T01:06:28;102970.72;;;19.37;78.93
66689;BME280;53587;59.318;18.084;2023-09-07T01:08:55;102970.56;;;19.03;80.24
66689;BME280;53587;59.318;18.084;2023-09-07T01:11:22;102987.16;;;18.79;81.97
66689;BME280;53587;59.318;18.084;2023-09-07T01:13:48;102980.97;;;19.25;88.43
66689;BME280;53587;59.318;18.084;2023-09-07T01:16:13;102979.38;;;19.58;90.86
66689;BME280;53587;59.318;18.084;2023-09-07T01:18:39;102970.50;;;19.85;92.44
66689;BME280;53587;59.318;18.084;2023-09-07T01:21:07;102966.09;;;20.01;91.89
66689;BME280;53587;59.318;18.084;2023-09-07T01:23:37;102971.56;;;20.13;92.42
66689;BME280;53587;59.318;18.084;2023-09-07T01:26:03;102970.19;;;20.32;92.50
66689;BME280;53587;59.318;18.084;2023-09-07T01:28:28;102969.34;;;20.15;85.45
66689;BME280;53587;59.318;18.084;2023-09-07T01:30:53;102961.31;;;19.67;83.82
66689;BME280;53587;59.318;18.084;2023-09-07T01:33:19;102964.31;;;19.37;82.40
66689;BME280;53587;59.318;18.084;2023-09-07T01:35:44;102963.91;;;19.16;81.48
66689;BME280;53587;59.318;18.084;2023-09-07T01:38:09;102967.97;;;19.25;87.93
66689;BME280;53587;59.318;18.084;2023-09-07T01:40:35;102968.22;;;19.53;90.19
66689;BME280;53587;59.318;18.084;2023-09-07T01:43:00;102961.16;;;19.74;92.04
66689;BME280;53587;59.318;18.084;2023-09-07T01:45:25;102960.13;;;19.92;92.19
66689;BME280;53587;59.318;18.084;2023-09-07T01:47:51;102955.28;;;19.99;91.25
66689;BME280;53587;59.318;18.084;2023-09-07T01:50:17;102960.97;;;20.09;90.12
66689;BME280;53587;59.318;18.084;2023-09-07T01:52:42;102955.59;;;19.57;82.31
66689;BME280;53587;59.318;18.084;2023-09-07T01:55:07;102962.81;;;19.29;81.38
66689;BME280;53587;59.318;18.084;2023-09-07T01:57:33;102958.19;;;19.06;81.52
66689;BME280;53587;59.318;18.084;2023-09-07T01:59:58;102960.50;;;18.73;81.84
66689;BME280;53587;59.318;18.084;2023-09-07T02:02:23;102961.16;;;19.16;89.32
66689;BME280;53587;59.318;18.084;2023-09-07T02:04:48;102958.31;;;19.40;91.32
66689;BME280;53587;59.318;18.084;2023-09-07T02:07:14;102954.38;;;19.65;93.15
66689;BME280;53587;59.318;18.084;2023-09-07T02:09:40;102955.59;;;19.86;91.67
66689;BME280;53587;59.318;18.084;2023-09-07T02:12:05;102951.66;;;19.99;90.51
66689;BME280;53587;59.318;18.084;2023-09-07T02:14:30;102953.94;;;20.19;91.25
66689;BME280;53587;59.318;18.084;2023-09-07T02:16:56;102956.28;;;19.93;85.55
66689;BME280;53587;59.318;18.084;2023-09-07T02:19:21;102951.63;;;19.53;84.61
66689;BME280;53587;59.318;18.084;2023-09-07T02:21:48;102954.59;;;19.34;82.96
66689;BME280;53587;59.318;18.084;2023-09-07T02:24:13;102956.75;;;19.03;82.19
66689;BME280;53587;59.318;18.084;2023-09-07T02:26:38;102952.94;;;19.33;88.38
66689;BME280;53587;59.318;18.084;2023-09-07T02:29:09;102947.06;;;19.58;90.71
66689;BME280;53587;59.318;18.084;2023-09-07T02:31:35;102938.28;;;19.78;92.40
66689;BME280;53587;59.318;18.084;2023-09-07T02:34:00;102943.53;;;19.92;90.85
66689;BME280;53587;59.318;18.084;2023-09-07T02:36:25;102940.09;;;20.02;90.14
66689;BME280;53587;59.318;18.084;2023-09-07T02:38:50;102943.34;;;20.16;90.95
66689;BME280;53587;59.318;18.084;2023-09-07T02:41:16;102936.97;;;20.32;91.91
66689;BME280;53587;59.318;18.084;2023-09-07T02:43:41;102941.91;;;20.47;90.93
66689;BME280;53587;59.318;18.084;2023-09-07T02:46:06;102932.94;;;19.89;83.37
66689;BME280;53587;59.318;18.084;2023-09-07T02:48:31;102938.41;;;19.55;82.07
66689;BME280;53587;59.318;18.084;2023-09-07T02:50:57;102938.66;;;19.24;82.23
66689;BME280;53587;59.318;18.084;2023-09-07T02:53:23;102950.03;;;18.99;81.59
66689;BME280;53587;59.318;18.084;2023-09-07T02:55:49;102945.22;;;19.35;89.05
66689;BME280;53587;59.318;18.084;2023-09-07T02:58:14;102949.56;;;19.60;91.02
66689;BME280;53587;59.318;18.084;2023-09-07T03:00:43;102949.34;;;19.78;92.39
66689;BME280;53587;59.318;18.084;2023-09-07T03:03:12;102959.13;;;19.98;91.61
66689;BME280;53587;59.318;18.084;2023-09-07T03:05:41;102951.25;;;20.07;89.58
66689;BME280;53587;59.318;18.084;2023-09-07T03:08:07;102945.28;;;19.98;87.36
66689;BME280;53587;59.318;18.084;2023-09-07T03:10:33;102951.25;;;19.61;84.18
66689;BME280;53587;59.318;18.084;2023-09-07T03:12:58;102952.44;;;19.36;82.95
66689;BME280;53587;59.318;18.084;2023-09-07T03:15:23;102965.75;;;19.10;82.52
66689;BME280;53587;59.318;18.084;2023-09-07T03:17:48;102967.91;;;19.08;85.93
66689;BME280;53587;59.318;18.084;2023-09-07T03:20:14;102965.84;;;19.44;90.68
66689;BME280;53587;59.318;18.084;2023-09-07T03:22:45;102956.66;;;19.27;83.83
66689;BME280;53587;59.318;18.084;2023-09-07T03:25:11;102962.03;;;18.81;83.58
66689;BME280;53587;59.318;18.084;2023-09-07T03:27:37;102959.78;;;18.66;81.71
66689;BME280;53587;59.318;18.084;2023-09-07T03:30:02;102957.63;;;18.44;81.91
66689;BME280;53587;59.318;18.084;2023-09-07T03:32:29;102966.97;;;18.79;88.59
66689;BME280;53587;59.318;18.084;2023-09-07T03:34:57;102960.22;;;19.10;91.59
66689;BME280;53587;59.318;18.084;2023-09-07T03:37:23;102966.00;;;19.38;92.10
66689;BME280;53587;59.318;18.084;2023-09-07T03:39:48;102968.84;;;19.55;91.29
66689;BME280;53587;59.318;18.084;2023-09-07T03:42:13;102966.13;;;19.72;91.47
66689;BME280;53587;59.318;18.084;2023-09-07T03:44:38;102960.03;;;19.87;91.49
66689;BME280;53587;59.318;18.084;2023-09-07T03:47:04;102945.22;;;19.93;90.74
66689;BME280;53587;59.318;18.084;2023-09-07T03:49:30;102954.09;;;20.12;91.97
66689;BME280;53587;59.318;18.084;2023-09-07T03:51:55;102954.00;;;20.07;87.88
66689;BME280;53587;59.318;18.084;2023-09-07T03:54:20;102959.03;;;19.64;84.69
66689;BME280;53587;59.318;18.084;2023-09-07T03:56:45;102919.28;;;19.36;82.83
66689;BME280;53587;59.318;18.084;2023-09-07T03:59:10;102949.28;;;19.04;82.57
66689;BME280;53587;59.318;18.084;2023-09-07T04:01:36;102949.44;;;18.97;85.00
66689;BME280;53587;59.318;18.084;2023-09-07T04:04:01;102947.91;;;19.30;89.84
66689;BME280;53587;59.318;18.084;2023-09-07T04:06:26;102945.28;;;19.69;92.12
66689;BME280;53587;59.318;18.084;2023-09-07T04:08:51;102941.53;;;20.04;92.73
66689;BME280;53587;59.318;18.084;2023-09-07T04:11:17;102940.16;;;20.24;88.63
66689;BME280;53587;59.318;18.084;2023-09-07T04:13:42;102940.69;;;19.87;80.99
66689;BME280;53587;59.318;18.084;2023-09-07T04:16:08;102942.31;;;19.01;72.26
66689;BME280;53587;59.318;18.084;2023-09-07T04:18:33;102941.28;;;19.60;85.01
66689;BME280;53587;59.318;18.084;2023-09-07T04:21:08;102939.44;;;20.11;90.93
66689;BME280;53587;59.318;18.084;2023-09-07T04:23:33;102936.47;;;20.35;89.37
66689;BME280;53587;59.318;18.084;2023-09-07T04:26:08;102935.13;;;18.88;70.32
66689;BME280;53587;59.318;18.084;2023-09-07T04:28:33;102938.25;;;19.61;86.80
66689;BME280;53587;59.318;18.084;2023-09-07T04:30:59;102931.88;;;20.24;91.61
66689;BME280;53587;59.318;18.084;2023-09-07T04:33:24;102933.97;;;20.17;83.76
66689;BME280;53587;59.318;18.084;2023-09-07T04:35:49;102939.13;;;18.57;71.43
66689;BME280;53587;59.318;18.084;2023-09-07T04:38:14;102949.69;;;18.24;83.76
66689;BME280;53587;59.318;18.084;2023-09-07T04:40:40;102932.81;;;19.50;91.25
66689;BME280;53587;59.318;18.084;2023-09-07T04:43:05;102940.44;;;20.05;91.34
66689;BME280;53587;59.318;18.084;2023-09-07T04:45:30;102940.09;;;19.27;75.64
66689;BME280;53587;59.318;18.084;2023-09-07T04:47:55;102945.16;;;17.76;70.82
66689;BME280;53587;59.318;18.084;2023-09-07T04:50:21;102949.91;;;18.82;89.22
66689;BME280;53587;59.318;18.084;2023-09-07T04:52:46;102945.97;;;19.76;92.65
66689;BME280;53587;59.318;18.084;2023-09-07T04:55:11;102938.28;;;19.78;86.44
66689;BME280;53587;59.318;18.084;2023-09-07T04:57:36;102936.13;;;18.34;71.65
66689;BME280;53587;59.318;18.084;2023-09-07T05:00:03;102948.38;;;19.27;90.48
66689;BME280;53587;59.318;18.084;2023-09-07T05:02:29;102946.53;;;20.07;92.18
66689;BME280;53587;59.318;18.084;2023-09-07T05:04:54;102935.91;;;19.70;83.20
66689;BME280;53587;59.318;18.084;2023-09-07T05:07:19;102938.41;;;18.26;72.77
66689;BME280;53587;59.318;18.084;2023-09-07T05:09:44;102937.13;;;19.17;87.83
66689;BME280;53587;59.318;18.084;2023-09-07T05:12:09;102946.13;;;19.99;92.42
66689;BME280;53587;59.318;18.084;2023-09-07T05:14:35;102939.88;;;19.74;82.34
66689;BME280;53587;59.318;18.084;2023-09-07T05:17:03;102943.69;;;18.15;74.65
66689;BME280;53587;59.318;18.084;2023-09-07T05:19:29;102950.31;;;18.50;86.66
66689;BME280;53587;59.318;18.084;2023-09-07T05:21:54;102942.94;;;19.61;92.85
66689;BME280;53587;59.318;18.084;2023-09-07T05:24:19;102940.25;;;19.95;90.46
66689;BME280;53587;59.318;18.084;2023-09-07T05:26:44;102944.66;;;18.57;73.02
66689;BME280;53587;59.318;18.084;2023-09-07T05:29:11;102942.75;;;19.22;89.90
66689;BME280;53587;59.318;18.084;2023-09-07T05:31:36;102951.59;;;20.10;93.17
66689;BME280;53587;59.318;18.084;2023-09-07T05:34:01;102945.63;;;19.85;83.55
66689;BME280;53587;59.318;18.084;2023-09-07T05:36:27;102938.91;;;17.80;70.75
66689;BME280;53587;59.318;18.084;2023-09-07T05:38:52;102956.53;;;18.45;88.44
66689;BME280;53587;59.318;18.084;2023-09-07T05:41:17;102950.25;;;19.67;93.68
66689;BME280;53587;59.318;18.084;2023-09-07T05:43:43;102941.25;;;19.89;87.03
66689;BME280;53587;59.318;18.084;2023-09-07T05:46:08;102948.50;;;18.32;71.65
66689;BME280;53587;59.318;18.084;2023-09-07T05:48:33;102949.44;;;18.02;83.29
66689;BME280;53587;59.318;18.084;2023-09-07T05:50:58;102949.78;;;19.41;92.51
66689;BME280;53587;59.318;18.084;2023-09-07T05:53:24;102943.88;;;20.13;92.68
66689;BME280;53587;59.318;18.084;2023-09-07T05:55:52;102943.94;;;19.26;76.14
66689;BME280;53587;59.318;18.084;2023-09-07T05:58:17;102941.84;;;19.04;87.28
66689;BME280;53587;59.318;18.084;2023-09-07T06:00:42;102934.81;;;20.00;93.13
66689;BME280;53587;59.318;18.084;2023-09-07T06:03:08;102938.63;;;19.82;82.13
66689;BME280;53587;59.318;18.084;2023-09-07T06:05:34;102936.31;;;17.85;72.60
66689;BME280;53587;59.318;18.084;2023-09-07T06:08:00;102946.81;;;18.78;88.55
66689;BME280;53587;59.318;18.084;2023-09-07T06:10:27;102940.50;;;19.93;92.98
66689;BME280;53587;59.318;18.084;2023-09-07T06:12:52;102946.03;;;20.10;88.62
66689;BME280;53587;59.318;18.084;2023-09-07T06:15:18;102941.53;;;18.53;72.79
66689;BME280;53587;59.318;18.084;2023-09-07T06:17:43;102948.97;;;18.05;84.15
66689;BME280;53587;59.318;18.084;2023-09-07T06:20:08;102944.44;;;19.52;93.62
66689;BME280;53587;59.318;18.084;2023-09-07T06:22:34;102943.59;;;19.97;90.57
66689;BME280;53587;59.318;18.084;2023-09-07T06:24:59;102944.16;;;18.83;75.33
66689;BME280;53587;59.318;18.084;2023-09-07T06:27:24;102943.25;;;19.47;90.79
66689;BME280;53587;59.318;18.084;2023-09-07T06:29:49;102945.53;;;20.14;91.63
66689;BME280;53587;59.318;18.084;2023-09-07T06:32:16;102936.78;;;19.42;76.81
66689;BME280;53587;59.318;18.084;2023-09-07T06:34:41;102942.03;;;17.72;73.87
66689;BME280;53587;59.318;18.084;2023-09-07T06:37:06;102958.28;;;19.11;91.57
66689;BME280;53587;59.318;18.084;2023-09-07T06:39:31;102942.25;;;20.00;93.21
66689;BME280;53587;59.318;18.084;2023-09-07T06:41:59;102941.88;;;19.62;84.08
66689;BME280;53587;59.318;18.084;2023-09-07T06:44:24;102948.03;;;18.11;74.35
66689;BME280;53587;59.318;18.084;2023-09-07T06:46:50;102945.50;;;18.93;89.52
66689;BME280;53587;59.318;18.084;2023-09-07T06:49:15;102942.53;;;19.98;93.79
66689;BME280;53587;59.318;18.084;2023-09-07T06:51:40;102936.50;;;19.84;86.49
66689;BME280;53587;59.318;18.084;2023-09-07T06:54:05;102941.28;;;18.31;76.04
66689;BME280;53587;59.318;18.084;2023-09-07T06:56:31;102945.63;;;18.74;87.98
66689;BME280;53587;59.318;18.084;2023-09-07T06:58:58;102938.00;;;19.92;92.93
66689;BME280;53587;59.318;18.084;2023-09-07T07:01:24;102932.94;;;19.72;84.88
66689;BME280;53587;59.318;18.084;2023-09-07T07:03:49;102934.44;;;17.98;73.96
66689;BME280;53587;59.318;18.084;2023-09-07T07:06:14;102950.19;;;18.21;89.64
66689;BME280;53587;59.318;18.084;2023-09-07T07:08:40;102944.84;;;19.43;94.88
66689;BME280;53587;59.318;18.084;2023-09-07T07:11:05;102948.06;;;19.98;92.05
66689;BME280;53587;59.318;18.084;2023-09-07T07:13:30;102943.22;;;18.54;74.71
66689;BME280;53587;59.318;18.084;2023-09-07T07:15:55;102941.88;;;19.33;90.83
66689;BME280;53587;59.318;18.084;2023-09-07T07:18:21;102939.09;;;20.08;93.23
66689;BME280;53587;59.318;18.084;2023-09-07T07:20:46;102935.44;;;19.44;77.71
66689;BME280;53587;59.318;18.084;2023-09-07T07:23:11;102940.78;;;17.56;73.73
66689;BME280;53587;59.318;18.084;2023-09-07T07:25:37;102940.06;;;18.98;91.94
66689;BME280;53587;59.318;18.084;2023-09-07T07:28:03;102951.81;;;19.92;94.13
66689;BME280;53587;59.318;18.084;2023-09-07T07:30:33;102945.41;;;19.45;81.86
66689;BME280;53587;59.318;18.084;2023-09-07T07:32:58;102948.41;;;17.84;72.66
66689;BME280;53587;59.318;18.084;2023-09-07T07:35:24;102947.66;;;18.91;92.21
66689;BME280;53587;59.318;18.084;2023-09-07T07:37:49;102943.59;;;19.97;93.67
66689;BME280;53587;59.318;18.084;2023-09-07T07:40:15;102936.44;;;19.67;85.39
66689;BME280;53587;59.318;18.084;2023-09-07T07:42:40;102946.81;;;18.31;74.68
66689;BME280;53587;59.318;18.084;2023-09-07T07:45:05;102942.34;;;18.89;89.42
66689;BME280;53587;59.318;18.084;2023-09-07T07:47:31;102932.63;;;20.02;94.10
66689;BME280;53587;59.318;18.084;2023-09-07T07:49:56;102934.22;;;19.69;84.58
66689;BME280;53587;59.318;18.084;2023-09-07T07:52:21;102931.50;;;17.81;73.15
66689;BME280;53587;59.318;18.084;2023-09-07T07:54:47;102941.16;;;18.61;91.83
66689;BME280;53587;59.318;18.084;2023-09-07T07:57:12;102936.81;;;19.88;94.65
66689;BME280;53587;59.318;18.084;2023-09-07T07:59:37;102931.66;;;19.79;88.28
66689;BME280;53587;59.318;18.084;2023-09-07T08:02:02;102922.72;;;17.72;71.96
66689;BME280;53587;59.318;18.084;2023-09-07T08:04:28;102937.59;;;18.25;89.10
66689;BME280;53587;59.318;18.084;2023-09-07T08:06:53;102932.22;;;19.65;95.35
66689;BME280;53587;59.318;18.084;2023-09-07T08:09:23;102933.22;;;19.75;88.77
66689;BME280;53587;59.318;18.084;2023-09-07T08:11:48;102933.50;;;18.04;73.84
66689;BME280;53587;59.318;18.084;2023-09-07T08:14:13;102938.28;;;18.56;90.02
66689;BME280;53587;59.318;18.084;2023-09-07T08:16:39;102922.03;;;19.82;93.76
66689;BME280;53587;59.318;18.084;2023-09-07T08:19:04;102920.88;;;19.95;88.89
66689;BME280;53587;59.318;18.084;2023-09-07T08:21:29;102929.28;;;18.37;74.08
66689;BME280;53587;59.318;18.084;2023-09-07T08:23:54;102926.28;;;18.50;89.81
66689;BME280;53587;59.318;18.084;2023-09-07T08:26:22;102922.47;;;19.91;94.56
66689;BME280;53587;59.318;18.084;2023-09-07T08:28:47;102923.00;;;19.88;88.14
66689;BME280;53587;59.318;18.084;2023-09-07T08:31:12;102936.63;;;18.08;72.91
66689;BME280;53587;59.318;18.084;2023-09-07T08:33:39;102928.31;;;18.67;88.09
66689;BME280;53587;59.318;18.084;2023-09-07T08:36:05;102933.34;;;19.81;93.69
66689;BME280;53587;59.318;18.084;2023-09-07T08:38:30;102919.31;;;19.99;90.02
66689;BME280;53587;59.318;18.084;2023-09-07T08:40:56;102929.88;;;18.75;75.26
66689;BME280;53587;59.318;18.084;2023-09-07T08:43:25;102926.38;;;18.91;87.95
66689;BME280;53587;59.318;18.084;2023-09-07T08:45:55;102934.97;;;20.10;92.61
66689;BME280;53587;59.318;18.084;2023-09-07T08:48:25;102924.06;;;20.04;84.81
66689;BME280;53587;59.318;18.084;2023-09-07T08:50:51;102931.31;;;18.65;71.85
66689;BME280;53587;59.318;18.084;2023-09-07T08:53:18;102935.66;;;18.61;88.89
66689;BME280;53587;59.318;18.084;2023-09-07T08:55:44;102925.25;;;19.91;93.15
66689;BME280;53587;59.318;18.084;2023-09-07T08:58:09;102926.66;;;19.93;85.90
66689;BME280;53587;59.318;18.084;2023-09-07T09:00:35;102925.47;;;18.62;72.61
66689;BME280;53587;59.318;18.084;2023-09-07T09:03:01;102920.84;;;18.91;88.60
66689;BME280;53587;59.318;18.084;2023-09-07T09:05:27;102913.84;;;20.04;93.68
66689;BME280;53587;59.318;18.084;2023-09-07T09:08:03;102916.00;;;20.19;88.50
66689;BME280;53587;59.318;18.084;2023-09-07T09:10:29;102902.47;;;18.85;73.97
66689;BME280;53587;59.318;18.084;2023-09-07T09:12:54;102905.44;;;19.07;90.14
66689;BME280;53587;59.318;18.084;2023-09-07T09:15:21;102894.88;;;20.13;92.28
66689;BME280;53587;59.318;18.084;2023-09-07T09:17:46;102893.19;;;19.95;83.90
66689;BME280;53587;59.318;18.084;2023-09-07T09:20:32;102890.41;;;18.50;74.04
66689;BME280;53587;59.318;18.084;2023-09-07T09:22:57;102887.66;;;19.32;90.05
66689;BME280;53587;59.318;18.084;2023-09-07T09:25:22;102891.34;;;20.18;93.04
66689;BME280;53587;59.318;18.084;2023-09-07T09:27:47;102880.38;;;19.89;82.04
66689;BME280;53587;59.318;18.084;2023-09-07T09:30:13;102881.41;;;18.55;73.51
66689;BME280;53587;59.318;18.084;2023-09-07T09:32:41;102888.97;;;19.58;91.27
66689;BME280;53587;59.318;18.084;2023-09-07T09:35:06;102890.69;;;20.27;92.17
66689;BME280;53587;59.318;18.084;2023-09-07T09:37:32;102881.44;;;19.54;76.42
66689;BME280;53587;59.318;18.084;2023-09-07T09:39:58;102885.72;;;18.39;73.02
66689;BME280;53587;59.318;18.084;2023-09-07T09:42:25;102894.50;;;18.00;85.10
66689;BME280;53587;59.318;18.084;2023-09-07T09:44:51;102883.13;;;19.55;93.40
66689;BME280;53587;59.318;18.084;2023-09-07T09:47:17;102879.47;;;20.00;91.33
66689;BME280;53587;59.318;18.084;2023-09-07T09:49:43;102870.09;;;18.69;73.52
66689;BME280;53587;59.318;18.084;2023-09-07T09:52:08;102884.16;;;18.43;80.88
66689;BME280;53587;59.318;18.084;2023-09-07T09:54:37;102876.47;;;19.73;92.27
66689;BME280;53587;59.318;18.084;2023-09-07T09:57:03;102875.44;;;20.08;89.95
66689;BME280;53587;59.318;18.084;2023-09-07T09:59:29;102874.09;;;18.90;74.57
66689;BME280;53587;59.318;18.084;2023-09-07T10:01:54;102873.13;;;17.96;71.78
66689;BME280;53587;59.318;18.084;2023-09-07T10:04:20;102883.38;;;18.83;89.52
66689;BME280;53587;59.318;18.084;2023-09-07T10:06:54;102878.22;;;19.91;92.61
66689;BME280;53587;59.318;18.084;2023-09-07T10:09:20;102876.72;;;19.83;84.88
66689;BME280;53587;59.318;18.084;2023-09-07T10:11:50;102877.91;;;18.48;74.81
66689;BME280;53587;59.318;18.084;2023-09-07T10:14:16;102884.03;;;19.43;88.69
66689;BME280;53587;59.318;18.084;2023-09-07T10:16:45;102860.31;;;20.16;91.46
66689;BME280;53587;59.318;18.084;2023-09-07T10:19:14;102861.53;;;20.03;83.00
66689;BME280;53587;59.318;18.084;2023-09-07T10:21:40;102869.53;;;18.43;72.62
66689;BME280;53587;59.318;18.084;2023-09-07T10:24:06;102866.34;;;19.61;91.57
66689;BME280;53587;59.318;18.084;2023-09-07T10:26:31;102866.81;;;20.43;92.06
66689;BME280;53587;59.318;18.084;2023-09-07T10:29:00;102860.66;;;19.85;79.17
66689;BME280;53587;59.318;18.084;2023-09-07T10:31:28;102860.53;;;18.47;70.51
66689;BME280;53587;59.318;18.084;2023-09-07T10:34:07;102867.84;;;18.54;85.07
66689;BME280;53587;59.318;18.084;2023-09-07T10:36:36;102866.72;;;19.99;92.02
66689;BME280;53587;59.318;18.084;2023-09-07T10:39:02;102854.03;;;20.03;85.10
66689;BME280;53587;59.318;18.084;2023-09-07T10:41:29;102848.81;;;18.69;72.49
66689;BME280;53587;59.318;18.084;2023-09-07T10:44:04;102856.91;;;19.28;88.05
66689;BME280;53587;59.318;18.084;2023-09-07T10:46:29;102839.66;;;20.23;92.49
66689;BME280;53587;59.318;18.084;2023-09-07T10:48:55;102837.50;;;20.08;83.57
66689;BME280;53587;59.318;18.084;2023-09-07T10:51:21;102855.38;;;18.39;72.32
66689;BME280;53587;59.318;18.084;2023-09-07T10:53:49;102857.88;;;19.05;89.12
66689;BME280;53587;59.318;18.084;2023-09-07T10:58:40;102849.94;;;20.06;85.21
66689;BME280;53587;59.318;18.084;2023-09-07T11:01:07;102848.50;;;18.54;70.92
66689;BME280;53587;59.318;18.084;2023-09-07T11:03:36;102842.53;;;19.26;88.32
66689;BME280;53587;59.318;18.084;2023-09-07T11:06:15;102841.00;;;20.21;92.33
66689;BME280;53587;59.318;18.084;2023-09-07T11:08:45;102834.69;;;19.86;80.52
66689;BME280;53587;59.318;18.084;2023-09-07T11:11:10;102840.38;;;18.35;72.41
66689;BME280;53587;59.318;18.084;2023-09-07T11:13:36;102848.06;;;19.43;89.89
66689;BME280;53587;59.318;18.084;2023-09-07T11:16:01;102840.00;;;20.27;92.15
66689;BME280;53587;59.318;18.084;2023-09-07T11:18:27;102829.72;;;19.71;78.17
66689;BME280;53587;59.318;18.084;2023-09-07T11:20:52;102823.78;;;18.47;72.60
66689;BME280;53587;59.318;18.084;2023-09-07T11:23:18;102832.06;;;19.45;90.05
66689;BME280;53587;59.318;18.084;2023-09-07T11:25:44;102820.66;;;20.32;91.67
66689;BME280;53587;59.318;18.084;2023-09-07T11:28:09;102829.75;;;19.88;78.68
66689;BME280;53587;59.318;18.084;2023-09-07T11:30:36;102832.38;;;17.98;71.59
66689;BME280;53587;59.318;18.084;2023-09-07T11:35:27;102818.38;;;20.24;90.93
66689;BME280;53587;59.318;18.084;2023-09-07T11:37:52;102812.56;;;19.52;75.13
66689;BME280;53587;59.318;18.084;2023-09-07T11:40:17;102814.97;;;18.09;72.27
66689;BME280;53587;59.318;18.084;2023-09-07T11:42:43;102809.94;;;19.62;90.72
66689;BME280;53587;59.318;18.084;2023-09-07T11:45:08;102806.78;;;20.27;91.09
66689;BME280;53587;59.318;18.084;2023-09-07T11:47:34;102803.50;;;19.40;75.52
66689;BME280;53587;59.318;18.084;2023-09-07T11:50:00;102814.38;;;18.07;71.60
66689;BME280;53587;59.318;18.084;2023-09-07T11:52:26;102806.19;;;18.36;86.25
66689;BME280;53587;59.318;18.084;2023-09-07T11:54:51;102804.56;;;19.73;92.19
66689;BME280;53587;59.318;18.084;2023-09-07T11:57:16;102800.41;;;20.26;91.86
66689;BME280;53587;59.318;18.084;2023-09-07T11:59:42;102794.78;;;19.31;75.55
66689;BME280;53587;59.318;18.084;2023-09-07T12:02:07;102809.09;;;18.17;79.02
66689;BME280;53587;59.318;18.084;2023-09-07T12:04:36;102795.13;;;19.86;91.30
66689;BME280;53587;59.318;18.084;2023-09-07T12:07:02;102787.69;;;20.08;87.48
66689;BME280;53587;59.318;18.084;2023-09-07T12:09:28;102789.97;;;18.80;72.97
66689;BME280;53587;59.318;18.084;2023-09-07T12:11:53;102791.00;;;18.50;84.00
66689;BME280;53587;59.318;18.084;2023-09-07T12:14:18;102789.25;;;19.99;91.59
66689;BME280;53587;59.318;18.084;2023-09-07T12:16:43;102787.53;;;20.15;87.10
66689;BME280;53587;59.318;18.084;2023-09-07T12:19:08;102770.31;;;18.65;72.95
66689;BME280;53587;59.318;18.084;2023-09-07T12:21:34;102773.41;;;18.80;84.86
66689;BME280;53587;59.318;18.084;2023-09-07T12:23:59;102770.53;;;20.06;92.72
66689;BME280;53587;59.318;18.084;2023-09-07T12:26:24;102776.19;;;20.17;87.40
66689;BME280;53587;59.318;18.084;2023-09-07T12:28:49;102772.28;;;18.53;72.32
66689;BME280;53587;59.318;18.084;2023-09-07T12:31:15;102775.38;;;18.97;85.98
66689;BME280;53587;59.318;18.084;2023-09-07T12:33:40;102773.91;;;20.14;91.71
66689;BME280;53587;59.318;18.084;2023-09-07T12:36:05;102764.56;;;19.98;82.34
66689;BME280;53587;59.318;18.084;2023-09-07T12:38:34;102755.13;;;18.50;72.75